ADDS METAR Data INFO
IDs: Format: Raw Decoded Include TAF

Data at: 1113 UTC 21 Feb 2018

KLPR 201453Z AUTO 23010G20KT 10SM FEW060 OVC100 19/12 A3008 RMK AO2 PK WND 21027/1433 SLP182 T01890117 50005
KLPR 201353Z AUTO 23016G22KT 10SM BKN110 18/11 A3009 RMK AO2 SLP187 T01830111
KLPR 201253Z AUTO 23012G20KT 10SM OVC100 18/11 A3008 RMK AO2 SLP185 T01780111
KLPR 201153Z AUTO 22011G19KT 10SM SCT049 OVC080 18/11 A3006 RMK AO2 SLP179 70066 T01780111 10178 20167 52005
KLPR 201053Z AUTO 21011G18KT 10SM OVC075 17/11 A3006 RMK AO2 SLP178 T01720106
KLPR 200953Z AUTO 21010G20KT 10SM OVC090 17/11 A3005 RMK AO2 SLP176 T01720106
KLPR 200853Z AUTO 23008G22KT 10SM OVC090 17/10 A3005 RMK AO2 SLP175 T01670100 50006
KLPR 200753Z AUTO 21010G18KT 10SM OVC090 17/10 A3005 RMK AO2 SLP176 T01670100
KLPR 200653Z AUTO 22008G16KT 10SM FEW110 17/10 A3004 RMK AO2 SLP173 T01670100
KLPR 200553Z AUTO 22011G20KT 10SM FEW100 17/11 A3003 RMK AO2 PK WND 21026/0516 SLP169 T01720106 10178 20133 51003
KLPR 200453Z AUTO 21011G20KT 10SM BKN110 17/11 A3003 RMK AO2 SLP168 T01720106 401780006
KLPR 200353Z AUTO 21008G14KT 10SM OVC065 17/11 A3003 RMK AO2 SLP170 T01670111
KLPR 200253Z AUTO 22009G19KT 10SM OVC100 17/11 A3002 RMK AO2 SLP167 T01720111 53006
KLPR 200153Z AUTO 21010G18KT 10SM FEW120 17/12 A3001 RMK AO2 SLP165 T01670117
KLPR 200053Z AUTO 20009KT 10SM BKN110 14/11 A3000 RMK AO2 SLP160 T01440111
KLPR 192353Z AUTO 18013G19KT 10SM BKN110 13/11 A3000 RMK AO2 RAE36 SLP163 P0002 60028 T01330106 10139 20094 56003